Time;durP1;ratioP1;P1;durP2;ratioP2;P2;SDS_P1;SDS_P2;PMS_P1;PMS_P2;Temp;Humidity;BMP_temperature;BMP_pressure;BME280_temperature;BME280_humidity;BME280_pressure;Samples;Min_cycle;Max_cycle;Signal;HPM_P1;HPM_P2
2023/11/28 00:01:09;;;;;;;6.15;5.55;;;3.20;99.90;;;;;;5005873;28;20204;-75
2023/11/28 00:03:36;;;;;;;6.15;5.55;;;3.10;99.90;;;;;;4990403;28;20220;-72
2023/11/28 00:06:05;;;;;;;5.95;5.35;;;3.10;99.90;;;;;;5007081;28;20203;-73
2023/11/28 00:08:32;;;;;;;8.20;6.82;;;3.10;99.90;;;;;;5008025;28;20235;-72
2023/11/28 00:10:59;;;;;;;7.63;6.93;;;3.10;99.90;;;;;;5007222;28;20689;-73
2023/11/28 00:13:29;;;;;;;7.78;7.00;;;3.10;99.90;;;;;;5009364;28;20197;-73
2023/11/28 00:15:56;;;;;;;7.50;6.70;;;3.10;99.90;;;;;;5008612;28;20234;-73
2023/11/28 00:18:23;;;;;;;6.30;5.70;;;3.10;99.90;;;;;;5008864;28;20220;-73
2023/11/28 00:20:50;;;;;;;6.63;6.03;;;3.10;99.90;;;;;;5006598;28;20208;-73
2023/11/28 00:23:19;;;;;;;6.32;5.72;;;3.10;99.90;;;;;;5003272;28;20220;-74
2023/11/28 00:25:46;;;;;;;5.53;5.03;;;3.10;99.90;;;;;;5008786;28;20236;-73
2023/11/28 00:28:13;;;;;;;6.13;5.55;;;3.20;99.90;;;;;;5007567;28;20235;-73
2023/11/28 00:30:41;;;;;;;6.00;5.40;;;3.20;99.90;;;;;;5007521;28;20226;-75
2023/11/28 00:33:09;;;;;;;5.40;4.88;;;3.10;99.90;;;;;;5005039;28;20323;-72
2023/11/28 00:35:35;;;;;;;6.00;5.50;;;3.20;99.90;;;;;;5007158;28;20880;-74
2023/11/28 00:38:02;;;;;;;5.72;5.22;;;3.20;99.90;;;;;;5003758;28;20244;-73
2023/11/28 00:40:31;;;;;;;6.05;5.55;;;3.20;99.90;;;;;;5005522;28;20212;-73
2023/11/28 00:42:59;;;;;;;7.05;6.38;;;3.20;99.90;;;;;;5007424;28;20231;-73
2023/11/28 00:45:26;;;;;;;5.85;5.40;;;3.20;99.90;;;;;;5004846;28;20555;-73
2023/11/28 00:47:54;;;;;;;5.80;5.30;;;3.20;99.90;;;;;;5004703;28;20227;-74
2023/11/28 00:50:22;;;;;;;5.53;5.13;;;3.20;99.90;;;;;;5023192;28;20211;-73
2023/11/28 00:52:50;;;;;;;5.43;5.03;;;3.20;99.90;;;;;;5009551;28;20235;-73
2023/11/28 00:55:17;;;;;;;5.50;5.00;;;3.10;99.90;;;;;;5022126;28;20207;-72
2023/11/28 00:57:46;;;;;;;5.70;5.20;;;3.10;99.90;;;;;;5026906;28;20227;-73
2023/11/28 01:00:13;;;;;;;4.93;4.53;;;3.20;99.90;;;;;;5025186;28;20199;-73
2023/11/28 01:02:41;;;;;;;4.57;4.20;;;3.10;99.90;;;;;;5011522;28;20216;-73
2023/11/28 01:05:09;;;;;;;4.70;4.40;;;3.20;99.90;;;;;;5005300;28;21097;-74
2023/11/28 01:07:36;;;;;;;4.35;4.05;;;3.10;99.90;;;;;;5016266;28;20311;-73
2023/11/28 01:10:04;;;;;;;4.75;4.43;;;3.10;99.90;;;;;;5024557;28;20885;-73
2023/11/28 01:12:30;;;;;;;3.92;3.67;;;3.10;99.90;;;;;;5007265;28;20226;-73
2023/11/28 01:15:01;;;;;;;4.18;3.88;;;3.10;99.90;;;;;;5025994;28;20207;-73
2023/11/28 01:17:28;;;;;;;4.20;4.00;;;3.10;99.90;;;;;;5010064;28;20224;-73
2023/11/28 01:19:55;;;;;;;4.03;3.72;;;3.10;99.90;;;;;;4987935;28;20662;-73
2023/11/28 01:22:22;;;;;;;3.78;3.47;;;3.10;99.90;;;;;;5004824;28;20658;-75
2023/11/28 01:24:50;;;;;;;3.92;3.65;;;3.20;99.90;;;;;;5004508;28;22180;-74
2023/11/28 01:27:17;;;;;;;3.92;3.70;;;3.20;99.90;;;;;;5002165;28;20324;-74
2023/11/28 01:29:44;;;;;;;3.85;3.65;;;3.20;99.90;;;;;;5008127;28;20200;-72
2023/11/28 01:32:12;;;;;;;3.88;3.67;;;3.20;99.90;;;;;;5006487;28;20288;-74
2023/11/28 01:34:39;;;;;;;4.13;3.65;;;3.20;99.90;;;;;;5004223;28;20204;-73
2023/11/28 01:37:07;;;;;;;3.60;3.30;;;3.20;99.90;;;;;;4999278;28;20235;-73
2023/11/28 01:39:35;;;;;;;4.22;3.92;;;3.20;99.90;;;;;;5007826;28;20373;-73
2023/11/28 01:42:02;;;;;;;3.83;3.53;;;3.20;99.90;;;;;;4984625;28;20220;-73
2023/11/28 01:44:29;;;;;;;3.67;3.47;;;3.20;99.90;;;;;;5005627;28;20237;-74
2023/11/28 01:46:56;;;;;;;4.15;3.95;;;3.10;99.90;;;;;;5007371;28;20251;-73
2023/11/28 01:49:30;;;;;;;3.78;3.42;;;3.10;99.90;;;;;;4983802;28;20197;-74
2023/11/28 01:51:58;;;;;;;3.60;3.30;;;3.10;99.90;;;;;;4987260;28;20309;-74
2023/11/28 01:54:25;;;;;;;4.00;3.70;;;3.10;99.90;;;;;;5007223;28;20572;-73
2023/11/28 01:56:53;;;;;;;4.38;3.90;;;3.10;99.90;;;;;;5005752;28;20234;-73
2023/11/28 01:59:21;;;;;;;5.38;4.32;;;3.10;99.90;;;;;;5006241;28;20208;-73
2023/11/28 02:01:49;;;;;;;4.15;3.85;;;3.10;99.90;;;;;;5007359;28;20216;-73
2023/11/28 02:04:17;;;;;;;4.00;3.70;;;3.00;99.90;;;;;;5002594;28;20221;-73
2023/11/28 02:06:46;;;;;;;4.00;3.70;;;3.00;99.90;;;;;;5002593;28;20216;-73
2023/11/28 02:09:14;;;;;;;4.03;3.72;;;3.00;99.90;;;;;;5004640;28;20196;-74
2023/11/28 02:11:41;;;;;;;4.40;4.10;;;3.00;99.90;;;;;;4986207;28;20228;-74
2023/11/28 02:14:09;;;;;;;4.40;4.00;;;2.90;99.90;;;;;;5005925;28;20201;-73
2023/11/28 02:16:37;;;;;;;4.10;3.80;;;2.90;99.90;;;;;;5005760;28;20212;-73
2023/11/28 02:19:04;;;;;;;3.85;3.55;;;2.90;99.90;;;;;;5005331;28;20199;-73
2023/11/28 02:21:32;;;;;;;3.83;3.53;;;2.90;99.90;;;;;;5009688;28;20222;-73
2023/11/28 02:24:02;;;;;;;3.90;3.60;;;3.00;99.90;;;;;;4988411;28;20760;-75
2023/11/28 02:26:31;;;;;;;4.30;4.00;;;3.00;99.90;;;;;;5015145;28;20736;-73
2023/11/28 02:29:00;;;;;;;3.95;3.65;;;2.90;99.90;;;;;;4987919;28;20259;-73
2023/11/28 02:31:28;;;;;;;3.83;3.53;;;2.90;99.90;;;;;;5003510;28;20314;-73
2023/11/28 02:33:55;;;;;;;3.70;3.50;;;2.90;99.90;;;;;;5005161;28;20259;-74
2023/11/28 02:36:23;;;;;;;3.42;3.22;;;2.80;99.90;;;;;;5004410;28;20227;-74
2023/11/28 02:38:50;;;;;;;3.70;3.45;;;2.80;99.90;;;;;;4987852;28;20677;-74
2023/11/28 02:41:18;;;;;;;3.78;3.58;;;2.80;99.90;;;;;;4986469;28;20909;-72
2023/11/28 02:43:47;;;;;;;3.15;2.95;;;2.60;99.90;;;;;;5002386;28;20232;-72
2023/11/28 02:46:14;;;;;;;3.97;3.67;;;2.60;99.90;;;;;;5003312;28;20623;-72
2023/11/28 02:48:42;;;;;;;3.53;3.33;;;2.50;99.90;;;;;;4998969;28;20224;-73
2023/11/28 02:51:11;;;;;;;3.95;3.70;;;2.50;99.90;;;;;;5005294;28;20204;-73
2023/11/28 02:53:38;;;;;;;3.72;3.53;;;2.50;99.90;;;;;;5007524;28;20204;-73
2023/11/28 02:56:06;;;;;;;3.83;3.53;;;2.50;99.90;;;;;;5007787;28;20287;-73
2023/11/28 02:58:33;;;;;;;3.92;3.63;;;2.50;99.90;;;;;;4985695;28;20224;-72
2023/11/28 03:01:02;;;;;;;3.70;3.40;;;2.40;99.90;;;;;;5001912;28;20216;-72
2023/11/28 03:03:29;;;;;;;3.80;3.55;;;2.40;99.90;;;;;;4985652;28;20870;-73
2023/11/28 03:05:56;;;;;;;3.80;3.60;;;2.40;99.90;;;;;;5001255;28;20821;-73
2023/11/28 03:08:24;;;;;;;3.80;3.60;;;2.30;99.90;;;;;;5004674;28;20231;-75
2023/11/28 03:10:51;;;;;;;3.15;2.95;;;2.30;99.90;;;;;;5004883;28;20212;-72
2023/11/28 03:13:18;;;;;;;3.42;3.22;;;2.20;99.90;;;;;;5005261;28;20713;-72
2023/11/28 03:15:45;;;;;;;3.40;3.20;;;2.20;99.90;;;;;;5005240;28;20421;-72
2023/11/28 03:18:14;;;;;;;3.67;3.42;;;2.10;99.90;;;;;;4984210;28;20815;-72
2023/11/28 03:20:41;;;;;;;3.92;3.63;;;2.10;99.90;;;;;;5006913;28;20210;-74
2023/11/28 03:23:08;;;;;;;3.97;3.78;;;2.00;99.90;;;;;;5003011;28;20220;-73
2023/11/28 03:25:35;;;;;;;3.83;3.63;;;2.00;99.90;;;;;;5007525;28;20830;-74
2023/11/28 03:28:03;;;;;;;3.40;3.20;;;2.00;99.90;;;;;;4983758;28;20246;-73
2023/11/28 03:30:30;;;;;;;3.60;3.30;;;2.00;99.90;;;;;;4985883;28;20251;-74
2023/11/28 03:32:57;;;;;;;4.00;3.80;;;2.00;99.90;;;;;;5001765;28;20232;-74
2023/11/28 03:35:28;;;;;;;3.58;3.35;;;2.00;99.90;;;;;;5005306;28;20204;-74
2023/11/28 03:37:57;;;;;;;3.60;3.40;;;2.10;99.90;;;;;;5005110;28;20818;-73
2023/11/28 03:40:24;;;;;;;3.53;3.33;;;2.10;99.90;;;;;;5002976;28;20614;-73
2023/11/28 03:42:51;;;;;;;3.80;3.50;;;2.10;99.90;;;;;;5006693;28;20936;-72
2023/11/28 03:45:18;;;;;;;4.00;3.70;;;2.20;99.90;;;;;;5003351;28;20220;-73
2023/11/28 03:47:45;;;;;;;3.95;3.75;;;2.20;99.90;;;;;;4986400;28;20235;-73
2023/11/28 03:50:13;;;;;;;3.63;3.42;;;2.20;99.90;;;;;;5004963;28;20240;-75
2023/11/28 03:52:41;;;;;;;3.83;3.60;;;2.20;99.90;;;;;;5002368;28;20227;-73
2023/11/28 03:55:10;;;;;;;3.47;3.28;;;2.20;99.90;;;;;;5009390;28;20204;-73
2023/11/28 03:57:38;;;;;;;3.75;3.45;;;2.20;99.90;;;;;;5000167;28;20601;-73
2023/11/28 04:00:07;;;;;;;4.47;4.07;;;2.20;99.90;;;;;;5003279;28;20201;-74
2023/11/28 04:02:34;;;;;;;5.05;4.65;;;2.20;99.90;;;;;;5002713;28;20702;-73
2023/11/28 04:05:03;;;;;;;5.07;4.68;;;2.20;99.90;;;;;;4999238;28;20216;-73
2023/11/28 04:07:30;;;;;;;4.53;4.22;;;2.10;99.90;;;;;;5005870;28;20996;-73
2023/11/28 04:09:59;;;;;;;4.00;3.70;;;2.10;99.90;;;;;;5001412;28;20549;-73
2023/11/28 04:12:26;;;;;;;4.35;4.05;;;2.10;99.90;;;;;;5004311;28;20224;-73
2023/11/28 04:14:53;;;;;;;4.00;3.80;;;2.00;99.90;;;;;;5004422;28;20286;-73
2023/11/28 04:17:20;;;;;;;4.85;4.45;;;2.00;99.90;;;;;;5005458;28;20235;-72
2023/11/28 04:19:47;;;;;;;3.65;3.45;;;2.00;99.90;;;;;;4984266;28;20266;-73
2023/11/28 04:22:14;;;;;;;4.40;4.10;;;2.00;99.90;;;;;;5006693;28;20282;-73
2023/11/28 04:24:41;;;;;;;4.05;3.72;;;2.10;99.90;;;;;;5001746;28;20216;-73
2023/11/28 04:27:10;;;;;;;4.18;3.90;;;2.00;99.90;;;;;;5003166;28;21005;-72
2023/11/28 04:29:38;;;;;;;4.00;3.70;;;2.00;99.90;;;;;;5005873;28;20710;-73
2023/11/28 04:32:05;;;;;;;3.38;3.17;;;2.00;99.90;;;;;;4988819;28;20212;-73
2023/11/28 04:34:33;;;;;;;3.97;3.70;;;2.00;99.90;;;;;;5002881;28;20201;-74
2023/11/28 04:37:00;;;;;;;4.05;3.75;;;1.90;99.90;;;;;;4984551;28;20607;-72
2023/11/28 04:39:27;;;;;;;3.40;3.20;;;1.90;99.90;;;;;;5006599;28;20709;-74
2023/11/28 04:41:54;;;;;;;4.03;3.83;;;1.80;99.90;;;;;;5004024;28;20230;-73
2023/11/28 04:44:23;;;;;;;3.85;3.55;;;1.70;99.90;;;;;;5011649;28;20300;-73
2023/11/28 04:46:50;;;;;;;3.67;3.47;;;1.60;99.90;;;;;;5008153;28;20327;-73
2023/11/28 04:49:18;;;;;;;4.05;3.70;;;1.60;99.90;;;;;;5005740;28;20299;-73
2023/11/28 04:51:45;;;;;;;3.75;3.55;;;1.60;99.90;;;;;;5004686;28;20314;-73
2023/11/28 04:54:12;;;;;;;3.90;3.70;;;1.50;99.90;;;;;;5009864;28;20201;-73
2023/11/28 04:56:40;;;;;;;4.07;3.80;;;1.50;99.90;;;;;;5011004;28;20311;-73
2023/11/28 04:59:07;;;;;;;3.85;3.63;;;1.40;99.90;;;;;;5009797;28;20848;-73
2023/11/28 05:01:44;;;;;;;3.90;3.55;;;1.40;99.90;;;;;;5005222;28;20874;-76
2023/11/28 05:04:11;;;;;;;4.53;4.13;;;1.50;99.90;;;;;;5009373;28;20234;-74
2023/11/28 05:06:38;;;;;;;4.10;3.83;;;1.50;99.90;;;;;;5023482;28;20227;-74
2023/11/28 05:09:06;;;;;;;4.32;4.03;;;1.50;99.90;;;;;;5024985;28;20295;-73
2023/11/28 05:11:33;;;;;;;4.28;4.03;;;1.60;99.90;;;;;;5009916;28;20230;-73
2023/11/28 05:14:01;;;;;;;4.10;3.80;;;1.60;99.90;;;;;;4991520;28;20262;-74
2023/11/28 05:16:28;;;;;;;4.13;3.85;;;1.60;99.90;;;;;;5021315;28;20298;-73
2023/11/28 05:18:57;;;;;;;4.40;4.10;;;1.60;99.90;;;;;;4990749;28;20204;-73
2023/11/28 05:21:24;;;;;;;4.13;3.78;;;1.60;99.90;;;;;;5005767;28;20228;-73
2023/11/28 05:23:51;;;;;;;4.47;4.18;;;1.60;99.90;;;;;;5004482;28;20200;-73
2023/11/28 05:26:18;;;;;;;3.95;3.72;;;1.50;99.90;;;;;;5005380;28;20227;-72
2023/11/28 05:28:45;;;;;;;4.07;3.75;;;1.50;99.90;;;;;;5007318;28;20232;-73
2023/11/28 05:31:12;;;;;;;4.20;4.00;;;1.50;99.90;;;;;;5005628;28;20197;-72
2023/11/28 05:33:40;;;;;;;4.15;3.85;;;1.50;99.90;;;;;;5026042;28;20201;-73
2023/11/28 05:36:10;;;;;;;4.47;4.18;;;1.50;99.90;;;;;;5007351;28;20199;-73
2023/11/28 05:38:37;;;;;;;4.47;3.90;;;1.50;99.90;;;;;;5024266;28;20226;-73
2023/11/28 05:41:05;;;;;;;4.18;3.88;;;1.50;99.90;;;;;;5025497;28;20207;-72
2023/11/28 05:43:32;;;;;;;4.38;4.07;;;1.50;99.90;;;;;;5026068;28;20670;-73
2023/11/28 05:46:00;;;;;;;4.00;3.80;;;1.50;99.90;;;;;;5023767;28;20235;-72
2023/11/28 05:48:27;;;;;;;4.40;4.07;;;1.50;99.90;;;;;;4988934;28;20220;-73
2023/11/28 05:50:54;;;;;;;4.03;3.72;;;1.40;99.90;;;;;;5004422;28;20203;-72
2023/11/28 05:53:23;;;;;;;4.25;3.95;;;1.40;99.90;;;;;;5009875;28;20252;-72
2023/11/28 05:55:51;;;;;;;4.20;3.90;;;1.40;99.90;;;;;;5006787;28;20207;-73
2023/11/28 05:58:18;;;;;;;4.13;3.90;;;1.40;99.90;;;;;;5001190;28;20223;-72
2023/11/28 06:00:45;;;;;;;4.28;3.97;;;1.40;99.90;;;;;;5005181;28;20208;-74
2023/11/28 06:03:12;;;;;;;4.10;3.90;;;1.40;99.90;;;;;;5004622;28;20557;-72
2023/11/28 06:05:39;;;;;;;4.75;4.45;;;1.40;99.90;;;;;;5006667;28;20251;-73
2023/11/28 06:08:07;;;;;;;5.40;5.00;;;1.40;99.90;;;;;;5004458;28;20656;-74
2023/11/28 06:10:35;;;;;;;5.00;4.60;;;1.30;99.90;;;;;;5006774;28;20222;-73
2023/11/28 06:13:03;;;;;;;4.43;4.13;;;1.30;99.90;;;;;;5003313;28;20224;-72
2023/11/28 06:15:30;;;;;;;4.72;4.38;;;1.20;99.90;;;;;;5004817;28;20687;-73
2023/11/28 06:17:57;;;;;;;4.70;4.40;;;1.20;99.90;;;;;;5005178;28;20255;-73
2023/11/28 06:20:25;;;;;;;4.22;3.92;;;1.20;99.90;;;;;;5005520;28;20239;-73
2023/11/28 06:22:52;;;;;;;4.18;3.88;;;1.20;99.90;;;;;;5023039;28;20254;-72
2023/11/28 06:25:19;;;;;;;4.30;4.00;;;1.10;99.90;;;;;;5023261;28;20223;-73
2023/11/28 06:27:48;;;;;;;4.60;4.30;;;1.10;99.90;;;;;;5018196;28;20235;-72
2023/11/28 06:30:15;;;;;;;4.10;3.80;;;1.10;99.90;;;;;;5022491;28;20204;-72
2023/11/28 06:32:42;;;;;;;4.97;4.57;;;1.10;99.90;;;;;;5008306;28;20281;-73
2023/11/28 06:35:10;;;;;;;5.05;4.63;;;1.10;99.90;;;;;;5021627;28;20196;-73
2023/11/28 06:37:38;;;;;;;4.65;4.28;;;1.10;99.90;;;;;;5022994;28;20223;-73
2023/11/28 06:40:06;;;;;;;5.50;5.10;;;1.20;99.90;;;;;;5021089;28;20309;-73
2023/11/28 06:42:33;;;;;;;5.22;4.72;;;1.20;99.90;;;;;;5023674;28;20212;-74
2023/11/28 06:45:05;;;;;;;5.50;5.10;;;1.20;99.90;;;;;;5020808;28;20917;-73
2023/11/28 06:47:32;;;;;;;5.18;4.78;;;1.20;99.90;;;;;;5025268;28;20712;-74
2023/11/28 06:49:59;;;;;;;5.20;4.70;;;1.20;99.90;;;;;;5004599;28;20211;-74
2023/11/28 06:52:27;;;;;;;4.53;4.18;;;1.30;99.90;;;;;;5022570;28;20293;-74
2023/11/28 06:54:55;;;;;;;4.72;4.35;;;1.30;99.90;;;;;;5023740;28;20214;-73
2023/11/28 06:57:22;;;;;;;4.43;4.13;;;1.20;99.90;;;;;;5010245;28;20231;-74
2023/11/28 06:59:49;;;;;;;5.10;4.70;;;1.20;99.90;;;;;;5000288;28;20201;-73
2023/11/28 07:02:18;;;;;;;4.80;4.50;;;1.20;99.90;;;;;;5002300;28;20219;-73
2023/11/28 07:04:45;;;;;;;4.93;4.53;;;1.20;99.90;;;;;;4987235;28;20686;-72
2023/11/28 07:07:12;;;;;;;5.35;4.85;;;1.10;99.90;;;;;;5009791;28;20234;-72
2023/11/28 07:09:43;;;;;;;4.97;4.68;;;1.10;99.90;;;;;;5023923;28;20206;-73
2023/11/28 07:12:10;;;;;;;4.40;4.10;;;1.10;99.90;;;;;;5023889;28;20219;-75
2023/11/28 07:14:37;;;;;;;5.18;4.78;;;1.10;99.90;;;;;;5024338;28;20207;-73
2023/11/28 07:17:04;;;;;;;4.18;3.97;;;1.20;99.90;;;;;;5020676;28;20731;-74
2023/11/28 07:19:33;;;;;;;4.32;4.00;;;1.20;99.90;;;;;;5024019;28;20200;-73
2023/11/28 07:21:59;;;;;;;4.35;3.95;;;1.20;99.90;;;;;;5022640;28;20804;-72
2023/11/28 07:24:26;;;;;;;4.95;4.65;;;1.20;99.90;;;;;;5024104;28;20278;-73
2023/11/28 07:26:54;;;;;;;4.45;4.15;;;1.20;99.90;;;;;;5004477;28;20216;-72
2023/11/28 07:29:21;;;;;;;4.30;4.00;;;1.30;99.90;;;;;;5004280;28;20203;-73
2023/11/28 07:31:49;;;;;;;4.50;4.20;;;1.30;99.90;;;;;;5019480;28;20752;-73
2023/11/28 07:34:16;;;;;;;4.70;4.32;;;1.30;99.90;;;;;;5021834;28;20196;-73
2023/11/28 07:36:47;;;;;;;4.50;4.20;;;1.30;99.90;;;;;;5004386;28;20230;-73
2023/11/28 07:39:14;;;;;;;4.93;4.55;;;1.40;99.90;;;;;;5022604;28;20204;-72
2023/11/28 07:41:42;;;;;;;4.10;3.80;;;1.40;99.90;;;;;;5013468;28;21077;-73
2023/11/28 07:44:09;;;;;;;4.20;3.90;;;1.40;99.90;;;;;;5004364;28;20196;-74
2023/11/28 07:46:36;;;;;;;3.97;3.78;;;1.50;99.90;;;;;;5001846;28;20227;-74
2023/11/28 07:49:03;;;;;;;4.13;3.83;;;1.50;99.90;;;;;;5001879;28;20205;-72
2023/11/28 07:51:30;;;;;;;4.40;4.10;;;1.60;99.90;;;;;;5004286;28;20243;-73
2023/11/28 07:53:59;;;;;;;4.07;3.80;;;1.60;99.90;;;;;;5003901;28;20200;-73
2023/11/28 07:56:26;;;;;;;3.70;3.45;;;1.60;99.90;;;;;;5002224;28;20220;-72
2023/11/28 07:58:54;;;;;;;4.13;3.80;;;1.70;99.90;;;;;;4997500;28;20208;-74
2023/11/28 08:01:21;;;;;;;4.20;3.80;;;1.70;99.90;;;;;;4999872;28;20220;-74
2023/11/28 08:03:48;;;;;;;4.95;4.55;;;2.10;99.90;;;;;;5007100;28;20658;-75
2023/11/28 08:06:17;;;;;;;8.23;5.10;;;3.10;99.90;;;;;;5002896;28;20220;-75
2023/11/28 08:08:44;;;;;;;5.75;5.22;;;4.10;99.90;;;;;;5002782;28;20227;-74
2023/11/28 08:11:14;;;;;;;5.50;5.10;;;5.00;99.90;;;;;;5001907;28;20622;-74
2023/11/28 08:13:41;;;;;;;6.25;5.63;;;5.80;99.90;;;;;;5001292;28;20731;-78
2023/11/28 08:16:09;;;;;;;9.77;5.38;;;6.60;99.90;;;;;;5000660;28;20743;-77
2023/11/28 08:18:37;;;;;;;5.28;4.88;;;7.30;99.90;;;;;;4988257;28;20224;-73
2023/11/28 08:21:06;;;;;;;5.53;5.03;;;7.80;99.90;;;;;;5006880;28;20215;-74
2023/11/28 08:23:34;;;;;;;5.75;5.18;;;8.10;99.90;;;;;;5004286;28;20896;-75
2023/11/28 08:26:01;;;;;;;5.63;4.97;;;8.10;99.90;;;;;;5004195;28;20307;-73
2023/11/28 08:28:31;;;;;;;5.20;4.80;;;8.20;99.90;;;;;;5005639;28;20582;-75
2023/11/28 08:30:58;;;;;;;5.25;4.85;;;8.40;99.90;;;;;;5002866;28;20254;-73
2023/11/28 08:33:25;;;;;;;5.22;4.72;;;8.40;99.90;;;;;;5006258;28;20777;-73
2023/11/28 08:35:52;;;;;;;7.03;4.60;;;8.70;99.90;;;;;;5004628;28;20202;-72
2023/11/28 08:38:19;;;;;;;5.68;5.00;;;8.60;99.90;;;;;;5004753;28;20230;-72
2023/11/28 08:40:47;;;;;;;5.18;4.78;;;8.40;99.90;;;;;;5003988;28;20216;-72
2023/11/28 08:43:14;;;;;;;7.00;5.25;;;8.50;99.90;;;;;;5004508;28;20220;-73
2023/11/28 08:45:43;;;;;;;7.38;5.53;;;8.60;99.90;;;;;;5004640;28;20223;-73
2023/11/28 08:48:11;;;;;;;5.75;5.15;;;8.70;99.90;;;;;;5002522;28;20235;-73
2023/11/28 08:50:38;;;;;;;5.55;4.95;;;9.00;99.90;;;;;;5001152;28;20204;-73
2023/11/28 08:53:07;;;;;;;5.97;5.45;;;9.10;99.90;;;;;;5004174;28;20305;-74
2023/11/28 08:55:34;;;;;;;7.25;5.32;;;9.10;99.90;;;;;;5005919;28;20196;-73
2023/11/28 08:58:01;;;;;;;6.50;5.90;;;8.70;99.90;;;;;;5001709;28;20233;-73
2023/11/28 09:00:29;;;;;;;8.13;5.47;;;8.80;99.90;;;;;;5006714;28;20211;-73
2023/11/28 09:02:58;;;;;;;5.55;4.72;;;9.20;99.90;;;;;;5007030;28;20742;-73
2023/11/28 09:05:25;;;;;;;6.50;4.93;;;10.20;99.90;;;;;;5007327;28;21530;-73
2023/11/28 09:07:52;;;;;;;6.43;4.55;;;12.00;99.90;;;;;;5006976;28;20224;-73
2023/11/28 09:10:20;;;;;;;9.10;4.90;;;14.40;99.90;;;;;;5005134;28;20206;-73
2023/11/28 09:12:48;;;;;;;5.32;4.82;;;16.40;92.40;;;;;;5006624;28;20231;-73
2023/11/28 09:15:15;;;;;;;6.13;4.35;;;17.70;82.80;;;;;;5007592;28;20601;-74
2023/11/28 09:17:42;;;;;;;5.57;4.75;;;18.50;72.50;;;;;;5012237;28;20227;-73
2023/11/28 09:20:12;;;;;;;4.63;4.22;;;19.20;67.10;;;;;;5004579;28;20204;-73
2023/11/28 09:22:40;;;;;;;5.35;4.68;;;19.10;59.90;;;;;;5006455;28;20223;-73
2023/11/28 09:25:09;;;;;;;6.10;4.70;;;18.70;61.00;;;;;;5004120;28;20293;-73
2023/11/28 09:27:36;;;;;;;4.72;4.32;;;18.70;62.00;;;;;;5007040;28;20242;-72
2023/11/28 09:30:04;;;;;;;4.97;4.50;;;19.10;61.20;;;;;;5002811;28;20212;-73
2023/11/28 09:32:31;;;;;;;4.97;4.57;;;19.70;60.10;;;;;;5006772;28;20220;-73
2023/11/28 09:34:58;;;;;;;5.20;4.45;;;20.50;58.40;;;;;;5006303;28;20211;-75
2023/11/28 09:37:26;;;;;;;5.05;4.22;;;21.30;56.40;;;;;;5006803;28;20234;-73
2023/11/28 09:39:55;;;;;;;5.45;4.65;;;20.80;52.90;;;;;;5006342;28;20208;-74
2023/11/28 09:42:23;;;;;;;8.25;5.32;;;19.60;55.30;;;;;;5004419;28;20227;-74
2023/11/28 09:44:52;;;;;;;5.15;4.63;;;17.80;59.70;;;;;;5005294;28;20718;-73
2023/11/28 09:47:24;;;;;;;7.43;5.78;;;16.30;64.70;;;;;;5005412;28;20235;-73
2023/11/28 09:49:57;;;;;;;8.20;6.15;;;15.00;69.40;;;;;;5003901;28;20200;-73
2023/11/28 09:52:28;;;;;;;6.63;4.95;;;14.10;73.90;;;;;;5005034;28;20234;-73
2023/11/28 09:54:55;;;;;;;6.93;5.50;;;13.40;77.00;;;;;;5005648;28;20204;-72
2023/11/28 09:57:25;;;;;;;7.30;5.22;;;12.80;80.00;;;;;;4996744;28;20240;-73
2023/11/28 09:59:54;;;;;;;7.78;5.50;;;12.10;83.60;;;;;;5004394;28;20959;-73
2023/11/28 10:02:22;;;;;;;6.65;5.68;;;12.10;85.80;;;;;;5005583;28;20219;-72
2023/11/28 10:04:50;;;;;;;6.03;4.90;;;12.00;85.70;;;;;;5001422;28;20208;-73
2023/11/28 10:07:19;;;;;;;5.88;5.38;;;12.00;88.00;;;;;;5001748;28;20227;-73
2023/11/28 10:09:48;;;;;;;5.43;4.90;;;12.10;89.30;;;;;;5005519;28;20212;-72
2023/11/28 10:12:15;;;;;;;6.30;4.82;;;12.20;89.50;;;;;;5005046;28;20239;-72
2023/11/28 10:14:45;;;;;;;7.00;5.30;;;12.50;89.30;;;;;;5014274;28;20196;-73
2023/11/28 10:17:12;;;;;;;7.90;5.97;;;12.50;87.40;;;;;;5004097;28;20247;-72
2023/11/28 10:19:39;;;;;;;5.70;5.20;;;12.20;88.20;;;;;;5006495;28;20203;-73
2023/11/28 10:22:07;;;;;;;6.65;5.47;;;12.00;90.00;;;;;;5002206;28;20224;-73
2023/11/28 10:24:34;;;;;;;10.95;5.57;;;12.10;89.00;;;;;;5006888;28;20204;-74
2023/11/28 10:27:04;;;;;;;6.05;5.45;;;12.20;89.40;;;;;;5003212;28;20224;-73
2023/11/28 10:29:33;;;;;;;8.50;5.40;;;12.30;89.70;;;;;;5004547;28;20227;-73
2023/11/28 10:32:01;;;;;;;6.90;5.50;;;12.20;90.50;;;;;;5003839;28;20224;-73
2023/11/28 10:34:30;;;;;;;5.65;5.05;;;12.30;90.30;;;;;;5004746;28;20208;-73
2023/11/28 10:36:59;;;;;;;5.53;5.00;;;12.50;90.30;;;;;;5001642;28;20291;-72
2023/11/28 10:39:27;;;;;;;6.75;4.85;;;12.60;88.90;;;;;;5004510;28;20259;-73
2023/11/28 10:41:55;;;;;;;7.18;4.85;;;12.50;88.90;;;;;;5004625;28;20718;-73
2023/11/28 10:44:25;;;;;;;5.13;4.65;;;12.70;89.70;;;;;;5005156;28;20208;-72
2023/11/28 10:46:56;;;;;;;7.80;4.75;;;12.80;90.00;;;;;;5001672;28;20238;-72
2023/11/28 10:49:23;;;;;;;5.32;4.82;;;13.00;89.50;;;;;;5005522;28;20326;-73
2023/11/28 10:51:55;;;;;;;5.30;4.13;;;13.20;88.10;;;;;;5002875;28;20221;-73
2023/11/28 10:54:25;;;;;;;5.18;4.68;;;13.30;87.60;;;;;;4997834;28;20201;-73
2023/11/28 10:56:55;;;;;;;5.15;4.50;;;13.30;86.10;;;;;;5003123;28;20746;-72
2023/11/28 10:59:31;;;;;;;7.57;5.10;;;13.20;87.00;;;;;;5005590;28;20216;-73
2023/11/28 11:02:01;;;;;;;5.90;4.90;;;13.00;87.80;;;;;;5002371;28;20235;-73
2023/11/28 11:04:28;;;;;;;4.85;4.32;;;13.10;89.50;;;;;;5004941;28;20208;-72
2023/11/28 11:06:55;;;;;;;5.30;4.82;;;13.40;89.40;;;;;;5004202;28;20707;-73
2023/11/28 11:09:23;;;;;;;7.32;4.75;;;13.90;87.80;;;;;;5002699;28;20772;-73
2023/11/28 11:11:52;;;;;;;5.20;4.70;;;14.20;85.90;;;;;;5002557;28;20291;-73
2023/11/28 11:14:30;;;;;;;5.32;4.55;;;14.10;83.20;;;;;;5004546;28;20211;-72
2023/11/28 11:17:06;;;;;;;4.80;3.80;;;13.90;82.60;;;;;;5001836;28;20265;-73
2023/11/28 11:19:37;;;;;;;4.63;4.22;;;13.70;84.80;;;;;;5002354;28;20196;-73
2023/11/28 11:22:09;;;;;;;4.00;3.70;;;13.90;84.60;;;;;;5002840;28;20239;-73
2023/11/28 11:24:37;;;;;;;4.20;3.80;;;14.10;84.90;;;;;;5004263;28;20200;-73
2023/11/28 11:27:06;;;;;;;4.93;3.80;;;13.80;83.20;;;;;;4998379;28;20977;-73
2023/11/28 11:29:40;;;;;;;4.07;3.72;;;13.30;83.80;;;;;;5003449;28;20205;-74
2023/11/28 11:32:10;;;;;;;3.83;3.53;;;12.80;85.00;;;;;;5005159;28;20311;-73
2023/11/28 11:34:44;;;;;;;3.72;3.42;;;12.10;86.10;;;;;;5005965;28;20196;-73
2023/11/28 11:37:13;;;;;;;4.15;3.75;;;11.60;89.00;;;;;;5001037;28;20234;-74
2023/11/28 11:39:42;;;;;;;3.72;3.42;;;11.00;90.30;;;;;;5002536;28;20204;-72
2023/11/28 11:42:10;;;;;;;5.38;3.50;;;10.70;91.10;;;;;;4999293;28;20216;-73
2023/11/28 11:44:47;;;;;;;5.63;3.90;;;10.50;91.40;;;;;;5002007;28;20274;-74
2023/11/28 11:47:17;;;;;;;4.63;3.70;;;10.30;92.10;;;;;;4998870;28;20307;-73
2023/11/28 11:49:46;;;;;;;6.28;3.70;;;10.20;92.60;;;;;;5001057;28;20232;-73
2023/11/28 11:52:14;;;;;;;4.25;3.95;;;10.20;92.80;;;;;;5002437;28;20224;-73
2023/11/28 11:54:43;;;;;;;4.68;4.22;;;10.30;92.60;;;;;;5003092;28;20263;-73
2023/11/28 11:57:11;;;;;;;4.60;3.90;;;10.70;92.10;;;;;;5003396;28;20254;-74
2023/11/28 11:59:39;;;;;;;5.55;4.60;;;11.20;91.80;;;;;;5003972;28;20200;-73
2023/11/28 12:02:08;;;;;;;5.57;4.93;;;11.50;91.20;;;;;;5004175;28;20254;-73
2023/11/28 12:04:41;;;;;;;5.78;4.97;;;11.70;90.50;;;;;;5002501;28;20213;-73
2023/11/28 12:07:11;;;;;;;4.40;4.00;;;11.80;90.10;;;;;;5002567;28;20224;-73
2023/11/28 12:09:38;;;;;;;5.63;4.38;;;11.90;90.60;;;;;;5002562;28;20204;-73
2023/11/28 12:12:08;;;;;;;5.55;4.90;;;12.10;90.30;;;;;;5000669;28;20224;-73
2023/11/28 12:14:36;;;;;;;5.75;4.38;;;12.00;89.40;;;;;;5001925;28;20224;-73
2023/11/28 12:17:03;;;;;;;4.80;4.30;;;12.10;89.70;;;;;;5000779;28;20224;-73
2023/11/28 12:19:33;;;;;;;5.38;4.55;;;12.20;90.10;;;;;;5001640;28;20219;-73
2023/11/28 12:22:03;;;;;;;6.00;4.53;;;12.30;89.90;;;;;;5001738;28;20894;-73
2023/11/28 12:24:31;;;;;;;4.75;4.10;;;12.40;90.10;;;;;;5000488;28;20208;-73
2023/11/28 12:27:00;;;;;;;4.82;4.43;;;12.50;90.20;;;;;;5003429;28;20339;-73
2023/11/28 12:29:27;;;;;;;6.10;4.13;;;12.60;90.10;;;;;;5004302;28;20212;-73
2023/11/28 12:31:55;;;;;;;9.00;4.03;;;12.70;90.00;;;;;;5004406;28;20231;-73
2023/11/28 12:34:22;;;;;;;4.85;4.45;;;12.80;90.20;;;;;;5003699;28;20208;-73
2023/11/28 12:36:51;;;;;;;4.63;4.22;;;12.70;90.00;;;;;;5001833;28;20223;-73
2023/11/28 12:39:24;;;;;;;5.07;4.60;;;12.70;90.20;;;;;;5002316;28;20208;-74
2023/11/28 12:41:51;;;;;;;5.32;4.43;;;12.70;90.20;;;;;;5004214;28;20228;-73
2023/11/28 12:44:20;;;;;;;4.43;4.03;;;12.70;90.10;;;;;;5004064;28;20291;-75
2023/11/28 12:46:49;;;;;;;4.78;4.38;;;12.60;90.30;;;;;;5000147;28;20216;-73
2023/11/28 12:49:17;;;;;;;5.25;4.70;;;12.60;90.30;;;;;;5004799;28;20713;-73
2023/11/28 12:51:44;;;;;;;5.38;4.40;;;12.50;90.60;;;;;;5002294;28;20698;-73
2023/11/28 12:54:14;;;;;;;5.47;4.20;;;12.50;91.00;;;;;;5002315;28;20228;-73
2023/11/28 12:56:46;;;;;;;5.15;4.07;;;12.60;90.10;;;;;;5002393;28;20517;-73